This is the latest recevied weather packets stored in our database for station/object EUGENE. If no packets are shown the sender has not sent any weather packets the latest 10 day(s).
| Time | Temp. | Humidity | Pressure | Rain* | Wind** | Luminosity | Snow |
|---|---|---|---|---|---|---|---|
| 1777219917 | 11.67° C | 65% | 1010.7 hPa | 0 mm | - | - | - |
| 1777219016 | 10.56° C | 68% | 1010.7 hPa | 0 mm | - | - | - |
| 1777218116 | 10° C | 70% | 1010.6 hPa | 0 mm | - | - | - |
| 1777217216 | 8.89° C | 72% | 1010.5 hPa | 0 mm | - | - | - |
| 1777216316 | 8.33° C | 75% | 1010.5 hPa | 0 mm | - | - | - |
| 1777215416 | 7.22° C | 78% | 1010.4 hPa | 0 mm | - | - | - |
| 1777214516 | 6.11° C | 81% | 1010.2 hPa | 0 mm | - | - | - |
| 1777213617 | 5.56° C | 84% | 1010 hPa | 0 mm | - | - | - |
| 1777212717 | 4.44° C | 88% | 1009.9 hPa | 0 mm | - | - | - |
| 1777211816 | 3.89° C | 90% | 1009.6 hPa | 0 mm | - | - | - |
| 1777210916 | 3.33° C | 89% | 1009.4 hPa | 0 mm | - | - | - |
| 1777210016 | 3.33° C | 88% | 1009.3 hPa | 0 mm | - | - | - |
| 1777209117 | 3.33° C | 88% | 1009.1 hPa | 0 mm | - | - | - |
| 1777208217 | 3.33° C | 87% | 1008.9 hPa | 0 mm | - | - | - |
| 1777207317 | 3.89° C | 87% | 1008.8 hPa | 0 mm | - | - | - |
| 1777206416 | 3.89° C | 86% | 1008.8 hPa | 0 mm | - | - | - |
| 1777205516 | 4.44° C | 85% | 1008.7 hPa | 0 mm | - | - | - |
| 1777203716 | 4.44° C | 87% | 1008.6 hPa | 0 mm | - | - | - |
| 1777202816 | 3.89° C | 88% | 1008.5 hPa | 0 mm | - | - | - |
| 1777201916 | 3.89° C | 87% | 1008.5 hPa | 0 mm | - | - | - |
| 1777201016 | 3.89° C | 86% | 1008.5 hPa | 0 mm | - | - | - |
| 1777200116 | 3.89° C | 86% | 1008.4 hPa | 0 mm | - | - | - |
| 1777199216 | 3.89° C | 85% | 1008.4 hPa | 0 mm | - | - | - |
| 1777198316 | 4.44° C | 84% | 1008.4 hPa | 0 mm | - | - | - |
| 1777197416 | 4.44° C | 83% | 1008.3 hPa | 0 mm | - | - | - |
* Rain latest hour (hover to see other rain measurements)
** Current wind speed in m/s (hover to see current wind gust speed)